Time;durP1;ratioP1;P1;durP2;ratioP2;P2;SDS_P1;SDS_P2;PMS_P1;PMS_P2;Temp;Humidity;BMP_temperature;BMP_pressure;BME280_temperature;BME280_humidity;BME280_pressure;Samples;Min_cycle;Max_cycle;Signal;HPM_P1;HPM_P2
2022/01/04 00:01:33;;;;;;;;;;;7.10;99.90;;;;;;4998757;28;19912;-91
2022/01/04 00:03:59;;;;;;;;;;;7.10;99.90;;;;;;4998221;28;20260;-91
2022/01/04 00:06:25;;;;;;;;;;;7.10;99.90;;;;;;4998222;28;19936;-90
2022/01/04 00:08:50;;;;;;;;;;;7.10;99.90;;;;;;4998250;28;19905;-90
2022/01/04 00:11:19;;;;;;;;;;;7.00;99.90;;;;;;4997763;28;20012;-91
2022/01/04 00:13:45;;;;;;;;;;;7.00;99.90;;;;;;4998098;28;19921;-91
2022/01/04 00:16:11;;;;;;;;;;;7.00;99.90;;;;;;4998622;28;20008;-91
2022/01/04 00:18:40;;;;;;;;;;;7.00;99.90;;;;;;4998557;28;19960;-91
2022/01/04 00:21:06;;;;;;;;;;;7.00;99.90;;;;;;4998009;28;19906;-90
2022/01/04 00:23:31;;;;;;;;;;;7.00;99.90;;;;;;4997545;28;19906;-91
2022/01/04 00:25:58;;;;;;;;;;;7.00;99.90;;;;;;4997831;28;19913;-90
2022/01/04 00:28:24;;;;;;;;;;;7.00;99.90;;;;;;4998353;28;19960;-90
2022/01/04 00:30:49;;;;;;;;;;;7.00;99.90;;;;;;4997827;28;19905;-91
2022/01/04 00:33:16;;;;;;;;;;;7.00;99.90;;;;;;4997443;28;19909;-91
2022/01/04 00:35:42;;;;;;;;;;;7.00;99.90;;;;;;4998341;28;20267;-91
2022/01/04 00:38:08;;;;;;;;;;;6.90;99.90;;;;;;5015484;28;19906;-91
2022/01/04 00:40:33;;;;;;;;;;;7.00;99.90;;;;;;5015572;28;19952;-90
2022/01/04 00:42:59;;;;;;;;;;;7.00;99.90;;;;;;4997959;28;19992;-91
2022/01/04 00:45:25;;;;;;;;;;;7.00;99.90;;;;;;4997522;28;20345;-91
2022/01/04 00:50:19;;;;;;;;;;;7.00;99.90;;;;;;5015078;28;19952;-90
2022/01/04 00:52:45;;;;;;;;;;;7.00;99.90;;;;;;4997575;28;19906;-91
2022/01/04 00:55:10;;;;;;;;;;;7.00;99.90;;;;;;4998053;28;20344;-91
2022/01/04 00:57:36;;;;;;;;;;;7.00;99.90;;;;;;5000314;28;19917;-91
2022/01/04 01:00:03;;;;;;;;;;;7.10;99.90;;;;;;5002315;28;19931;-91
2022/01/04 01:02:29;;;;;;;;;;;7.10;99.90;;;;;;5018649;28;19905;-91
2022/01/04 01:04:54;;;;;;;;;;;7.00;99.90;;;;;;5001783;28;19912;-91
2022/01/04 01:07:20;;;;;;;;;;;7.10;99.90;;;;;;5002020;28;19906;-90
2022/01/04 01:10:04;;;;;;;;;;;7.00;99.90;;;;;;5001395;28;19906;-91
2022/01/04 01:12:29;;;;;;;;;;;7.10;99.90;;;;;;5018376;28;20344;-91
2022/01/04 01:14:55;;;;;;;;;;;7.10;99.90;;;;;;5001097;28;19909;-91
2022/01/04 01:17:21;;;;;;;;;;;7.10;99.90;;;;;;5001256;28;19988;-91
2022/01/04 01:19:46;;;;;;;;;;;7.00;99.90;;;;;;5001809;28;19960;-91
2022/01/04 01:22:12;;;;;;;;;;;7.00;99.90;;;;;;5001487;28;19909;-91
2022/01/04 01:24:37;;;;;;;;;;;7.00;99.90;;;;;;5001222;28;20267;-91
2022/01/04 01:27:03;;;;;;;;;;;7.00;99.90;;;;;;5000983;28;19955;-91
2022/01/04 01:29:29;;;;;;;;;;;7.00;99.90;;;;;;5001048;28;19941;-91
2022/01/04 01:31:54;;;;;;;;;;;7.00;99.90;;;;;;5018449;28;19905;-91
2022/01/04 01:34:20;;;;;;;;;;;7.00;99.90;;;;;;5000698;28;20059;-90
2022/01/04 01:36:45;;;;;;;;;;;7.00;99.90;;;;;;5001205;28;19924;-90
2022/01/04 01:39:12;;;;;;;;;;;7.00;99.90;;;;;;5000839;28;20007;-91
2022/01/04 01:41:38;;;;;;;;;;;7.00;99.90;;;;;;5001257;28;19910;-90
2022/01/04 01:44:04;;;;;;;;;;;7.00;99.90;;;;;;5000796;28;20315;-91
2022/01/04 01:46:29;;;;;;;;;;;7.00;99.90;;;;;;5001853;28;19905;-90
2022/01/04 01:48:55;;;;;;;;;;;7.00;99.90;;;;;;5001316;28;19905;-91
2022/01/04 01:51:23;;;;;;;;;;;7.00;99.90;;;;;;5000819;28;19905;-90
2022/01/04 01:53:49;;;;;;;;;;;7.00;99.90;;;;;;5000420;28;19968;-91
2022/01/04 01:56:14;;;;;;;;;;;7.00;99.90;;;;;;5000566;28;19913;-90
2022/01/04 01:58:40;;;;;;;;;;;7.00;99.90;;;;;;5000780;28;20384;-90
2022/01/04 02:01:05;;;;;;;;;;;7.00;99.90;;;;;;5001016;28;20233;-91
2022/01/04 02:03:31;;;;;;;;;;;7.00;99.90;;;;;;5000398;28;19907;-91
2022/01/04 02:05:57;;;;;;;;;;;7.00;99.90;;;;;;5000331;28;19944;-91
2022/01/04 02:08:23;;;;;;;;;;;7.00;99.90;;;;;;4999528;28;19917;-90
2022/01/04 02:10:51;;;;;;;;;;;7.00;99.90;;;;;;5000167;28;19906;-91
2022/01/04 02:13:16;;;;;;;;;;;7.00;99.90;;;;;;5000159;28;19916;-90
2022/01/04 02:15:42;;;;;;;;;;;7.00;99.90;;;;;;5000146;28;19913;-90
2022/01/04 02:18:08;;;;;;;;;;;6.90;99.90;;;;;;5017829;28;19906;-90
2022/01/04 02:20:34;;;;;;;;;;;7.00;99.90;;;;;;5000226;28;19906;-91
2022/01/04 02:22:59;;;;;;;;;;;6.90;99.90;;;;;;5000595;28;19956;-90
2022/01/04 02:25:25;;;;;;;;;;;6.90;99.90;;;;;;5017417;28;19913;-91
2022/01/04 02:27:51;;;;;;;;;;;7.00;99.90;;;;;;5017214;28;20419;-91
2022/01/04 02:30:17;;;;;;;;;;;6.90;99.90;;;;;;5000092;28;19905;-91
2022/01/04 02:32:43;;;;;;;;;;;6.90;99.90;;;;;;4999944;28;20276;-91
2022/01/04 02:35:09;;;;;;;;;;;6.90;99.90;;;;;;5000140;28;20340;-90
2022/01/04 02:37:34;;;;;;;;;;;6.90;99.90;;;;;;5017220;28;19909;-90
2022/01/04 02:40:00;;;;;;;;;;;6.90;99.90;;;;;;4999774;28;19913;-90
2022/01/04 02:42:26;;;;;;;;;;;6.90;99.90;;;;;;5000127;28;19906;-91
2022/01/04 02:44:51;;;;;;;;;;;6.90;99.90;;;;;;5000499;28;20044;-90
2022/01/04 02:47:17;;;;;;;;;;;6.90;99.90;;;;;;4999831;28;19921;-90
2022/01/04 02:49:42;;;;;;;;;;;6.90;99.90;;;;;;5000298;28;19960;-91
2022/01/04 02:52:08;;;;;;;;;;;6.90;99.90;;;;;;5016935;28;19913;-91
2022/01/04 02:54:34;;;;;;;;;;;6.90;99.90;;;;;;4999377;28;20352;-90
2022/01/04 02:56:59;;;;;;;;;;;6.90;99.90;;;;;;4999348;28;19909;-90
2022/01/04 02:59:25;;;;;;;;;;;6.80;99.90;;;;;;5016592;28;19955;-90
2022/01/04 03:01:51;;;;;;;;;;;6.80;99.90;;;;;;4999643;28;19992;-90
2022/01/04 03:04:16;;;;;;;;;;;6.80;99.90;;;;;;4999256;28;19933;-90
2022/01/04 03:06:42;;;;;;;;;;;6.80;99.90;;;;;;4999056;28;19909;-90
2022/01/04 03:09:08;;;;;;;;;;;6.80;99.90;;;;;;4999078;28;19905;-90
2022/01/04 03:11:34;;;;;;;;;;;6.80;99.90;;;;;;5016616;28;20016;-91
2022/01/04 03:14:00;;;;;;;;;;;6.80;99.90;;;;;;4999136;28;19916;-90
2022/01/04 03:16:26;;;;;;;;;;;6.80;99.90;;;;;;4999055;28;20335;-91
2022/01/04 03:21:20;;;;;;;;;;;6.70;99.90;;;;;;5015757;28;19906;-90
2022/01/04 03:23:45;;;;;;;;;;;6.70;99.90;;;;;;5010814;28;19905;-91
2022/01/04 03:26:11;;;;;;;;;;;6.70;99.90;;;;;;5011387;28;19939;-91
2022/01/04 03:28:40;;;;;;;;;;;6.70;99.90;;;;;;5012743;28;20276;-90
2022/01/04 03:31:06;;;;;;;;;;;6.70;99.90;;;;;;5007708;28;19905;-91
2022/01/04 03:33:31;;;;;;;;;;;6.70;99.90;;;;;;4998601;28;20374;-91
2022/01/04 03:35:57;;;;;;;;;;;6.70;99.90;;;;;;4999045;28;19910;-90
2022/01/04 03:38:22;;;;;;;;;;;6.70;99.90;;;;;;4998654;28;19959;-90
2022/01/04 03:40:48;;;;;;;;;;;6.70;99.90;;;;;;4998762;28;19906;-90
2022/01/04 03:43:14;;;;;;;;;;;6.70;99.90;;;;;;4999450;28;19905;-91
2022/01/04 03:45:39;;;;;;;;;;;6.60;99.90;;;;;;4998536;28;20340;-91
2022/01/04 03:48:05;;;;;;;;;;;6.70;99.90;;;;;;4998416;28;19996;-90
2022/01/04 03:50:30;;;;;;;;;;;6.70;99.90;;;;;;4999265;28;19910;-90
2022/01/04 03:52:56;;;;;;;;;;;6.70;99.90;;;;;;4998282;28;20320;-90
2022/01/04 03:55:21;;;;;;;;;;;6.60;99.90;;;;;;4998519;28;19980;-91
2022/01/04 03:57:47;;;;;;;;;;;6.60;99.90;;;;;;4997985;28;20096;-90
2022/01/04 04:00:12;;;;;;;;;;;6.60;99.90;;;;;;4998191;28;19945;-90
2022/01/04 04:02:39;;;;;;;;;;;6.50;99.90;;;;;;4998203;28;19912;-91
2022/01/04 04:05:05;;;;;;;;;;;6.50;99.90;;;;;;4998125;28;19906;-90
2022/01/04 04:07:30;;;;;;;;;;;6.40;99.90;;;;;;4998333;28;19905;-90
2022/01/04 04:09:56;;;;;;;;;;;6.40;99.90;;;;;;4998631;28;20004;-90
2022/01/04 04:12:23;;;;;;;;;;;6.40;99.90;;;;;;4998062;28;19918;-91
2022/01/04 04:14:48;;;;;;;;;;;6.30;99.90;;;;;;4998823;28;19977;-91
2022/01/04 04:17:14;;;;;;;;;;;6.30;99.90;;;;;;4998236;28;19913;-90
2022/01/04 04:19:39;;;;;;;;;;;6.30;99.90;;;;;;5021609;28;19928;-91
2022/01/04 04:22:05;;;;;;;;;;;6.40;99.90;;;;;;5001399;28;20451;-90
2022/01/04 04:24:30;;;;;;;;;;;6.40;99.90;;;;;;5001093;28;19929;-90
2022/01/04 04:26:56;;;;;;;;;;;6.40;99.90;;;;;;5005243;28;19905;-90
2022/01/04 04:29:21;;;;;;;;;;;6.40;99.90;;;;;;5007259;28;20083;-91
2022/01/04 04:31:47;;;;;;;;;;;6.50;99.90;;;;;;5006348;28;19952;-91
2022/01/04 04:34:12;;;;;;;;;;;6.50;99.90;;;;;;4997818;28;19921;-91
2022/01/04 04:36:38;;;;;;;;;;;6.50;99.90;;;;;;4998038;28;19910;-90
2022/01/04 04:39:04;;;;;;;;;;;6.50;99.90;;;;;;5015176;28;19948;-90
2022/01/04 04:41:30;;;;;;;;;;;6.60;99.90;;;;;;4997856;28;20003;-90
2022/01/04 04:43:55;;;;;;;;;;;6.60;99.90;;;;;;4997701;28;19906;-90
2022/01/04 04:46:21;;;;;;;;;;;6.60;99.90;;;;;;4997670;28;20300;-90
2022/01/04 04:48:47;;;;;;;;;;;6.60;99.90;;;;;;4997674;28;20280;-91
2022/01/04 04:51:12;;;;;;;;;;;6.60;99.90;;;;;;4997878;28;19913;-91
2022/01/04 04:53:38;;;;;;;;;;;6.60;99.90;;;;;;4997458;28;19986;-90
2022/01/04 04:56:04;;;;;;;;;;;6.60;99.90;;;;;;4997816;28;19920;-90
2022/01/04 04:58:29;;;;;;;;;;;6.60;99.90;;;;;;4997595;28;20004;-90
2022/01/04 05:00:55;;;;;;;;;;;6.60;99.90;;;;;;4997626;28;19996;-90
2022/01/04 05:03:20;;;;;;;;;;;6.60;99.90;;;;;;4997600;28;19905;-90
2022/01/04 05:05:46;;;;;;;;;;;6.60;99.90;;;;;;4998049;28;19956;-90
2022/01/04 05:08:11;;;;;;;;;;;6.60;99.90;;;;;;4998238;28;19905;-90
2022/01/04 05:10:37;;;;;;;;;;;6.70;99.90;;;;;;4997458;28;19957;-90
2022/01/04 05:13:02;;;;;;;;;;;6.70;99.90;;;;;;4997189;28;19949;-90
2022/01/04 05:15:28;;;;;;;;;;;6.70;99.90;;;;;;5014965;28;19916;-90
2022/01/04 05:17:54;;;;;;;;;;;6.70;99.90;;;;;;5014922;28;19906;-91
2022/01/04 05:20:19;;;;;;;;;;;6.70;99.90;;;;;;4997886;28;20411;-91
2022/01/04 05:22:45;;;;;;;;;;;6.70;99.90;;;;;;4997929;28;19913;-91
2022/01/04 05:25:10;;;;;;;;;;;6.70;99.90;;;;;;4997581;28;19906;-91
2022/01/04 05:27:36;;;;;;;;;;;6.70;99.90;;;;;;4997150;28;19911;-91
2022/01/04 05:30:01;;;;;;;;;;;6.70;99.90;;;;;;4997101;28;19988;-91
2022/01/04 05:32:27;;;;;;;;;;;6.60;99.90;;;;;;4997246;28;19973;-91
2022/01/04 05:34:52;;;;;;;;;;;6.60;99.90;;;;;;4997240;28;19913;-91
2022/01/04 05:37:18;;;;;;;;;;;6.50;99.90;;;;;;4997279;28;19910;-90
2022/01/04 05:39:44;;;;;;;;;;;6.50;99.90;;;;;;4997312;28;19906;-90
2022/01/04 05:42:09;;;;;;;;;;;6.50;99.90;;;;;;4997336;28;19905;-90
2022/01/04 05:44:35;;;;;;;;;;;6.40;99.90;;;;;;4999275;28;19905;-91
2022/01/04 05:47:01;;;;;;;;;;;6.40;99.90;;;;;;5001043;28;19959;-90
2022/01/04 05:49:27;;;;;;;;;;;6.40;99.90;;;;;;5018705;28;20007;-90
2022/01/04 05:51:52;;;;;;;;;;;6.40;99.90;;;;;;5000531;28;19909;-89
2022/01/04 05:54:18;;;;;;;;;;;6.40;99.90;;;;;;5000462;28;19917;-90
2022/01/04 05:56:43;;;;;;;;;;;6.40;99.90;;;;;;5000501;28;19915;-89
2022/01/04 05:59:09;;;;;;;;;;;6.50;99.90;;;;;;5000859;28;19906;-89
2022/01/04 06:01:34;;;;;;;;;;;6.50;99.90;;;;;;5000683;28;19952;-90
2022/01/04 06:04:00;;;;;;;;;;;6.50;99.90;;;;;;5000555;28;19916;-89
2022/01/04 06:06:25;;;;;;;;;;;6.50;99.90;;;;;;5000148;28;19905;-90
2022/01/04 06:08:51;;;;;;;;;;;6.60;99.90;;;;;;5000337;28;19905;-90
2022/01/04 06:16:45;;;;;;;;;;;6.70;99.90;;;;;;5018121;28;19968;-90
2022/01/04 06:19:11;;;;;;;;;;;6.70;99.90;;;;;;5000560;28;20312;-90
2022/01/04 06:21:36;;;;;;;;;;;6.70;99.90;;;;;;5000189;28;19912;-90
2022/01/04 06:24:02;;;;;;;;;;;6.80;99.90;;;;;;5000271;28;20004;-90
2022/01/04 06:26:28;;;;;;;;;;;6.80;99.90;;;;;;4999528;28;19906;-90
2022/01/04 06:28:54;;;;;;;;;;;6.80;99.90;;;;;;5000060;28;19959;-89
2022/01/04 06:31:19;;;;;;;;;;;6.90;99.90;;;;;;4999841;28;20335;-90
2022/01/04 06:33:45;;;;;;;;;;;6.90;99.90;;;;;;4999108;28;20438;-90
2022/01/04 06:36:11;;;;;;;;;;;6.90;99.90;;;;;;4999717;28;19910;-90
2022/01/04 06:38:36;;;;;;;;;;;6.90;99.90;;;;;;5000525;28;20340;-90
2022/01/04 06:41:02;;;;;;;;;;;7.00;99.90;;;;;;5000616;28;19906;-91
2022/01/04 06:43:28;;;;;;;;;;;7.00;99.90;;;;;;4999756;28;19909;-91
2022/01/04 06:45:53;;;;;;;;;;;7.00;99.90;;;;;;4999557;28;19911;-90
2022/01/04 06:48:19;;;;;;;;;;;7.00;99.90;;;;;;5000210;28;20005;-90
2022/01/04 06:50:45;;;;;;;;;;;7.00;99.90;;;;;;5017121;28;19945;-90
2022/01/04 06:53:10;;;;;;;;;;;7.00;99.90;;;;;;5000148;28;19912;-91
2022/01/04 06:55:36;;;;;;;;;;;7.00;99.90;;;;;;4999413;28;20420;-89
2022/01/04 06:58:01;;;;;;;;;;;7.00;99.90;;;;;;4999923;28;19909;-91
2022/01/04 07:00:27;;;;;;;;;;;7.00;99.90;;;;;;4999683;28;19905;-91
2022/01/04 07:02:52;;;;;;;;;;;7.00;99.90;;;;;;4998960;28;19916;-90
2022/01/04 07:05:18;;;;;;;;;;;7.00;99.90;;;;;;4999409;28;19905;-90
2022/01/04 07:07:44;;;;;;;;;;;7.00;99.90;;;;;;5001458;28;19907;-91
2022/01/04 07:10:10;;;;;;;;;;;7.00;99.90;;;;;;4998742;28;19959;-91
2022/01/04 07:12:35;;;;;;;;;;;6.90;99.90;;;;;;4999066;28;19924;-89
2022/01/04 07:15:01;;;;;;;;;;;6.90;99.90;;;;;;4999179;28;19913;-90
2022/01/04 07:17:26;;;;;;;;;;;6.90;99.90;;;;;;4998397;28;19917;-91
2022/01/04 07:19:52;;;;;;;;;;;6.90;99.90;;;;;;4999352;28;19924;-91
2022/01/04 07:22:17;;;;;;;;;;;6.90;99.90;;;;;;4998878;28;20222;-91
2022/01/04 07:24:43;;;;;;;;;;;6.90;99.90;;;;;;5016498;28;19909;-91
2022/01/04 07:27:09;;;;;;;;;;;6.90;99.90;;;;;;4998811;28;19913;-90
2022/01/04 07:29:34;;;;;;;;;;;7.00;99.90;;;;;;4999231;28;19905;-92
2022/01/04 07:32:00;;;;;;;;;;;7.00;99.90;;;;;;4998512;28;19905;-91
2022/01/04 07:34:25;;;;;;;;;;;7.00;99.90;;;;;;5015903;28;20063;-91
2022/01/04 07:36:51;;;;;;;;;;;7.00;99.90;;;;;;4998295;28;19956;-92
2022/01/04 07:39:17;;;;;;;;;;;7.00;99.90;;;;;;4998501;28;19912;-91
2022/01/04 07:41:42;;;;;;;;;;;7.10;99.90;;;;;;4998748;28;19914;-92
2022/01/04 07:44:08;;;;;;;;;;;7.00;99.90;;;;;;4998748;28;19996;-91
2022/01/04 07:46:33;;;;;;;;;;;7.10;99.90;;;;;;4998553;28;20260;-91
2022/01/04 07:48:59;;;;;;;;;;;7.10;99.90;;;;;;4998958;28;19912;-90
2022/01/04 07:51:24;;;;;;;;;;;7.20;99.90;;;;;;4998726;28;19976;-91
2022/01/04 07:53:50;;;;;;;;;;;7.10;99.90;;;;;;4998875;28;19918;-91
2022/01/04 07:56:16;;;;;;;;;;;7.20;99.90;;;;;;4998230;28;20284;-91
2022/01/04 07:58:41;;;;;;;;;;;7.20;99.90;;;;;;4998029;28;19905;-91
2022/01/04 08:01:07;;;;;;;;;;;7.20;99.90;;;;;;4998191;28;19906;-91
2022/01/04 08:03:33;;;;;;;;;;;7.30;99.90;;;;;;4998293;28;19909;-92
2022/01/04 08:05:58;;;;;;;;;;;7.30;99.90;;;;;;5015066;28;19912;-91
2022/01/04 08:08:24;;;;;;;;;;;7.30;99.90;;;;;;4998288;28;20012;-91
2022/01/04 08:10:51;;;;;;;;;;;7.40;99.90;;;;;;4998267;28;19912;-91
2022/01/04 08:13:17;;;;;;;;;;;7.30;99.90;;;;;;4998144;28;19992;-91
2022/01/04 08:15:42;;;;;;;;;;;7.40;99.90;;;;;;4998011;28;19967;-91
2022/01/04 08:18:08;;;;;;;;;;;7.40;99.90;;;;;;4997790;28;20000;-92
2022/01/04 08:20:33;;;;;;;;;;;7.50;99.90;;;;;;4997950;28;20244;-91
2022/01/04 08:22:59;;;;;;;;;;;7.50;99.90;;;;;;4998033;28;19988;-91
2022/01/04 08:25:25;;;;;;;;;;;7.60;99.90;;;;;;4998221;28;19953;-91
2022/01/04 08:27:52;;;;;;;;;;;7.60;99.90;;;;;;4997784;28;19951;-91
2022/01/04 08:30:20;;;;;;;;;;;7.70;99.90;;;;;;4997777;28;20292;-91
2022/01/04 08:32:45;;;;;;;;;;;7.70;99.90;;;;;;4997353;28;19910;-91
2022/01/04 08:35:11;;;;;;;;;;;7.70;99.90;;;;;;4998604;28;19913;-90
2022/01/04 08:37:37;;;;;;;;;;;7.70;99.90;;;;;;4997543;28;19916;-90
2022/01/04 08:40:05;;;;;;;;;;;7.80;99.90;;;;;;4997969;28;20340;-90
2022/01/04 08:42:31;;;;;;;;;;;7.80;99.90;;;;;;5014411;28;19995;-92
2022/01/04 08:44:57;;;;;;;;;;;7.80;99.90;;;;;;4999068;28;19949;-89
2022/01/04 08:47:23;;;;;;;;;;;7.90;99.90;;;;;;4998898;28;19909;-90
2022/01/04 08:49:49;;;;;;;;;;;7.90;99.90;;;;;;4998744;28;19905;-92
2022/01/04 08:52:15;;;;;;;;;;;7.90;99.90;;;;;;4997805;28;19952;-92
2022/01/04 08:54:41;;;;;;;;;;;7.90;99.90;;;;;;4997797;28;19967;-92
2022/01/04 08:57:06;;;;;;;;;;;7.90;99.90;;;;;;4997602;28;19993;-92
2022/01/04 08:59:33;;;;;;;;;;;7.90;99.90;;;;;;5014826;28;19905;-91
2022/01/04 09:01:59;;;;;;;;;;;7.90;99.90;;;;;;4997543;28;19909;-92
2022/01/04 09:04:24;;;;;;;;;;;7.90;99.90;;;;;;4997428;28;20284;-92
2022/01/04 09:06:50;;;;;;;;;;;8.00;99.90;;;;;;5014787;28;19956;-92
2022/01/04 09:09:16;;;;;;;;;;;8.00;99.90;;;;;;4997457;28;19913;-92
2022/01/04 09:11:41;;;;;;;;;;;8.00;99.90;;;;;;4997246;28;19968;-92
2022/01/04 09:19:23;;;;;;;;;;;8.00;99.90;;;;;;5016848;28;20079;-91
2022/01/04 09:21:49;;;;;;;;;;;8.00;99.90;;;;;;5000732;28;19909;-91
2022/01/04 09:24:14;;;;;;;;;;;8.00;99.90;;;;;;5001297;28;19905;-92
2022/01/04 09:26:40;;;;;;;;;;;8.00;99.90;;;;;;5001011;28;19932;-89
2022/01/04 09:29:06;;;;;;;;;;;8.00;99.90;;;;;;5017956;28;19965;-90
2022/01/04 09:31:31;;;;;;;;;;;8.00;99.90;;;;;;5000367;28;19905;-91
2022/01/04 09:33:58;;;;;;;;;;;8.00;99.90;;;;;;5000408;28;19916;-91
2022/01/04 09:36:24;;;;;;;;;;;8.00;99.90;;;;;;5002189;28;19952;-90
2022/01/04 09:38:49;;;;;;;;;;;8.10;99.90;;;;;;5002145;28;19913;-91
2022/01/04 09:41:15;;;;;;;;;;;8.10;99.90;;;;;;5005581;28;20325;-90
2022/01/04 09:43:41;;;;;;;;;;;8.20;99.90;;;;;;5012909;28;19905;-90
2022/01/04 09:46:06;;;;;;;;;;;8.20;99.90;;;;;;5029480;28;19937;-91
2022/01/04 09:48:32;;;;;;;;;;;8.30;99.90;;;;;;5029594;28;19906;-90
2022/01/04 09:50:57;;;;;;;;;;;8.40;99.90;;;;;;5003159;28;20221;-91
2022/01/04 09:53:24;;;;;;;;;;;8.40;99.90;;;;;;5001092;28;19920;-91
2022/01/04 09:55:51;;;;;;;;;;;8.40;99.90;;;;;;5001097;28;19925;-91
2022/01/04 09:58:18;;;;;;;;;;;8.40;99.90;;;;;;5024667;28;19912;-92
2022/01/04 10:00:43;;;;;;;;;;;8.40;99.60;;;;;;5028466;28;20248;-91
2022/01/04 10:03:11;;;;;;;;;;;8.40;99.90;;;;;;5011078;28;19906;-89
2022/01/04 10:05:37;;;;;;;;;;;8.40;99.90;;;;;;5001526;28;19912;-90
2022/01/04 10:08:20;;;;;;;;;;;8.30;99.90;;;;;;5018059;28;19910;-95
2022/01/04 10:10:46;;;;;;;;;;;8.30;99.90;;;;;;5000278;28;19909;-92
2022/01/04 10:13:14;;;;;;;;;;;8.30;99.70;;;;;;5009644;28;19955;-92
2022/01/04 10:15:55;;;;;;;;;;;8.30;99.90;;;;;;5019591;28;19909;-96
2022/01/04 10:18:28;;;;;;;;;;;8.40;99.70;;;;;;5017315;28;19912;-92
2022/01/04 10:21:02;;;;;;;;;;;8.40;98.80;;;;;;5026867;28;19916;-94
2022/01/04 10:23:27;;;;;;;;;;;8.40;99.80;;;;;;5010430;28;20015;-95
2022/01/04 10:26:01;;;;;;;;;;;8.50;99.80;;;;;;5029718;28;19913;-95
2022/01/04 10:28:36;;;;;;;;;;;8.60;99.40;;;;;;5013355;28;19936;-96
2022/01/04 10:31:06;;;;;;;;;;;8.60;98.90;;;;;;5016906;28;19916;-96
2022/01/04 10:33:34;;;;;;;;;;;8.70;98.90;;;;;;5009636;28;20003;-95
2022/01/04 10:36:01;;;;;;;;;;;8.80;99.70;;;;;;5020793;28;19920;-94
2022/01/04 10:38:49;;;;;;;;;;;8.80;97.60;;;;;;5023825;28;19920;-96
2022/01/04 10:41:22;;;;;;;;;;;8.90;96.80;;;;;;5024681;28;19917;-94
2022/01/04 10:43:53;;;;;;;;;;;8.90;95.80;;;;;;5023621;28;19920;-91
2022/01/04 10:46:45;;;;;;;;;;;8.90;95.60;;;;;;5005443;28;20248;-93
2022/01/04 10:49:15;;;;;;;;;;;8.80;95.60;;;;;;5003952;28;19992;-93
2022/01/04 10:51:45;;;;;;;;;;;8.80;96.10;;;;;;5004113;28;19905;-93
2022/01/04 10:54:17;;;;;;;;;;;8.70;95.10;;;;;;5020965;28;19960;-92
2022/01/04 10:56:46;;;;;;;;;;;8.70;96.50;;;;;;4984177;28;20026;-94
2022/01/04 10:59:13;;;;;;;;;;;8.70;96.00;;;;;;4988360;28;19906;-94
2022/01/04 11:01:43;;;;;;;;;;;8.70;96.50;;;;;;4999576;28;19909;-94
2022/01/04 11:04:14;;;;;;;;;;;8.70;96.10;;;;;;5000713;28;19905;-95
2022/01/04 11:06:40;;;;;;;;;;;8.70;97.20;;;;;;5018271;28;19909;-94
2022/01/04 11:09:07;;;;;;;;;;;8.80;96.50;;;;;;5012311;28;20004;-94
2022/01/04 11:11:43;;;;;;;;;;;;;;;;;;;;;
2022/01/04 11:14:10;;;;;;;;;;;8.80;97.00;;;;;;5018272;28;20007;-95
2022/01/04 11:16:38;;;;;;;;;;;8.90;96.70;;;;;;5009674;28;19909;-93
2022/01/04 11:19:04;;;;;;;;;;;8.90;95.40;;;;;;4999473;28;19909;-91
2022/01/04 11:21:32;;;;;;;;;;;8.80;95.50;;;;;;5002933;28;19905;-91
2022/01/04 11:24:01;;;;;;;;;;;8.70;95.90;;;;;;5005072;28;20323;-93
2022/01/04 11:26:27;;;;;;;;;;;8.70;94.50;;;;;;4987108;28;19913;-92
2022/01/04 11:28:53;;;;;;;;;;;8.60;94.70;;;;;;4995565;28;19909;-92
2022/01/04 11:31:19;;;;;;;;;;;8.60;94.50;;;;;;4999648;28;20043;-92
2022/01/04 11:33:54;;;;;;;;;;;8.60;94.50;;;;;;4998447;28;19909;-92
2022/01/04 11:36:20;;;;;;;;;;;8.60;94.20;;;;;;5016164;28;20276;-91
2022/01/04 11:38:47;;;;;;;;;;;8.50;94.00;;;;;;4982472;28;19928;-94
2022/01/04 11:41:24;;;;;;;;;;;8.50;93.40;;;;;;4985697;28;20236;-92
2022/01/04 11:43:50;;;;;;;;;;;8.50;94.20;;;;;;4986616;28;19952;-93
2022/01/04 11:46:33;;;;;;;;;;;8.50;94.20;;;;;;5016142;28;20285;-92
2022/01/04 11:49:44;;;;;;;;;;;8.50;94.20;;;;;;5015687;28;20004;-89
2022/01/04 11:52:32;;;;;;;;;;;8.60;94.60;;;;;;4958397;29;19929;-93
2022/01/04 11:58:14;;;;;;;;;;;8.60;94.20;;;;;;4945322;29;19953;-93
2022/01/04 12:04:03;;;;;;;;;;;8.70;93.70;;;;;;4975245;28;19938;-91
2022/01/04 12:06:37;;;;;;;;;;;8.70;94.30;;;;;;4979087;28;20356;-92
2022/01/04 12:09:29;;;;;;;;;;;8.70;93.80;;;;;;4978876;28;20265;-91
2022/01/04 12:11:54;;;;;;;;;;;8.70;94.20;;;;;;4977900;28;19937;-91
2022/01/04 12:14:21;;;;;;;;;;;8.70;94.80;;;;;;4977924;28;19917;-91
2022/01/04 12:17:00;;;;;;;;;;;8.60;94.20;;;;;;4977773;28;19910;-91
2022/01/04 12:19:44;;;;;;;;;;;8.60;94.10;;;;;;4979278;28;19910;-92
2022/01/04 12:22:11;;;;;;;;;;;8.50;94.00;;;;;;4978996;28;20369;-93
2022/01/04 12:24:44;;;;;;;;;;;8.40;94.40;;;;;;4979267;28;19906;-92
2022/01/04 12:27:19;;;;;;;;;;;8.40;95.30;;;;;;4978583;28;19945;-91
2022/01/04 12:29:45;;;;;;;;;;;8.40;94.40;;;;;;4978520;28;19913;-91
2022/01/04 12:32:19;;;;;;;;;;;8.30;94.00;;;;;;4979094;28;19909;-91
2022/01/04 12:35:00;;;;;;;;;;;8.20;94.40;;;;;;4978270;28;19926;-91
2022/01/04 12:37:26;;;;;;;;;;;8.10;94.40;;;;;;4978760;28;19989;-91
2022/01/04 12:39:55;;;;;;;;;;;8.10;94.50;;;;;;4978755;28;20308;-91
2022/01/04 12:42:21;;;;;;;;;;;8.00;94.60;;;;;;4979679;28;19906;-91
2022/01/04 12:44:51;;;;;;;;;;;7.90;94.80;;;;;;4979046;28;20361;-91
2022/01/04 12:47:20;;;;;;;;;;;7.90;94.70;;;;;;4995924;28;19905;-90
2022/01/04 12:49:48;;;;;;;;;;;7.90;95.20;;;;;;4979304;28;20017;-91
2022/01/04 12:52:17;;;;;;;;;;;7.90;95.20;;;;;;4978637;28;19913;-92
2022/01/04 12:54:42;;;;;;;;;;;7.90;95.30;;;;;;4982887;28;20566;-91
2022/01/04 12:57:11;;;;;;;;;;;8.00;95.90;;;;;;4982458;28;19909;-92
2022/01/04 12:59:40;;;;;;;;;;;8.00;95.70;;;;;;4982264;28;20288;-92
2022/01/04 13:02:12;;;;;;;;;;;8.00;95.80;;;;;;4982516;28;19906;-92
2022/01/04 13:04:39;;;;;;;;;;;8.10;95.70;;;;;;4982551;28;19913;-92
2022/01/04 13:07:17;;;;;;;;;;;8.10;95.90;;;;;;4982902;28;20349;-92
2022/01/04 13:09:47;;;;;;;;;;;8.20;95.80;;;;;;4981788;28;19949;-91
2022/01/04 13:12:13;;;;;;;;;;;8.20;96.00;;;;;;4982216;28;19922;-91
2022/01/04 13:14:39;;;;;;;;;;;8.20;95.90;;;;;;4981556;28;19937;-90
2022/01/04 13:17:04;;;;;;;;;;;8.20;96.00;;;;;;4982214;28;19956;-91
2022/01/04 13:19:30;;;;;;;;;;;8.30;95.60;;;;;;4982699;28;19969;-91
2022/01/04 13:21:58;;;;;;;;;;;8.20;95.50;;;;;;4981244;28;19905;-90
2022/01/04 13:24:36;;;;;;;;;;;8.20;95.60;;;;;;4981641;28;20337;-91
2022/01/04 13:27:15;;;;;;;;;;;8.30;96.10;;;;;;4981821;28;19909;-92
2022/01/04 13:29:44;;;;;;;;;;;8.30;96.20;;;;;;4981111;28;19906;-92
2022/01/04 13:32:12;;;;;;;;;;;8.30;96.00;;;;;;4982023;28;19913;-91
2022/01/04 13:34:41;;;;;;;;;;;8.30;95.90;;;;;;4981862;28;19987;-92
2022/01/04 13:37:07;;;;;;;;;;;8.30;96.10;;;;;;4981942;28;19913;-90
2022/01/04 13:39:34;;;;;;;;;;;8.30;96.10;;;;;;4981438;28;19909;-91
2022/01/04 13:42:00;;;;;;;;;;;8.30;96.70;;;;;;4981448;28;19957;-92
2022/01/04 13:44:25;;;;;;;;;;;8.30;96.50;;;;;;4981521;28;19932;-92
2022/01/04 13:46:51;;;;;;;;;;;8.30;96.20;;;;;;4981217;28;19953;-92
2022/01/04 13:49:24;;;;;;;;;;;8.30;96.10;;;;;;4981517;28;19913;-92
2022/01/04 13:51:50;;;;;;;;;;;8.30;96.50;;;;;;4981283;28;19913;-91
2022/01/04 13:54:18;;;;;;;;;;;8.30;96.40;;;;;;4980859;28;20285;-92
2022/01/04 13:56:43;;;;;;;;;;;8.30;96.10;;;;;;4981224;28;20428;-91
2022/01/04 13:59:18;;;;;;;;;;;8.30;96.60;;;;;;4980936;28;19906;-92
2022/01/04 14:01:46;;;;;;;;;;;8.30;96.80;;;;;;4989075;28;19924;-92
2022/01/04 14:04:14;;;;;;;;;;;8.30;96.70;;;;;;4980349;28;19910;-92
2022/01/04 14:06:55;;;;;;;;;;;8.30;96.40;;;;;;4980715;28;19906;-92
2022/01/04 14:09:30;;;;;;;;;;;8.30;96.90;;;;;;4981015;28;19910;-91
2022/01/04 14:11:55;;;;;;;;;;;8.30;97.00;;;;;;4980509;28;19918;-92
2022/01/04 14:14:25;;;;;;;;;;;8.30;96.80;;;;;;4980341;28;19917;-91
2022/01/04 14:16:59;;;;;;;;;;;8.20;96.80;;;;;;4980226;28;19917;-91
2022/01/04 14:19:29;;;;;;;;;;;8.20;97.00;;;;;;4981093;28;20024;-90
2022/01/04 14:22:08;;;;;;;;;;;8.30;97.20;;;;;;4980542;28;20002;-90
2022/01/04 14:24:35;;;;;;;;;;;8.30;97.30;;;;;;4980453;28;19916;-91
2022/01/04 14:27:03;;;;;;;;;;;8.30;97.40;;;;;;4997638;28;19924;-90
2022/01/04 14:29:29;;;;;;;;;;;8.40;97.40;;;;;;4980437;28;19936;-92
2022/01/04 14:32:05;;;;;;;;;;;8.50;97.40;;;;;;4980438;28;19905;-92
2022/01/04 14:34:33;;;;;;;;;;;8.50;97.40;;;;;;4980438;28;20004;-93
2022/01/04 14:36:59;;;;;;;;;;;8.60;97.20;;;;;;4980243;28;19933;-90
2022/01/04 14:39:30;;;;;;;;;;;8.60;97.30;;;;;;4980743;28;19910;-93
2022/01/04 14:41:56;;;;;;;;;;;8.70;97.20;;;;;;4980583;28;19906;-90
2022/01/04 14:44:24;;;;;;;;;;;8.70;96.90;;;;;;4980383;28;19913;-90
2022/01/04 14:46:50;;;;;;;;;;;8.70;96.30;;;;;;4980122;28;20300;-91
2022/01/04 14:49:15;;;;;;;;;;;8.70;96.60;;;;;;4979990;28;20000;-91
2022/01/04 14:51:41;;;;;;;;;;;8.70;96.60;;;;;;4980248;28;19912;-92
2022/01/04 14:54:07;;;;;;;;;;;8.70;96.70;;;;;;4979995;28;19914;-91